sensor_id;sensor_type;location;lat;lon;timestamp;P1;durP1;ratioP1;P2;durP2;ratioP2
6422;SDS011;3244;42.708;23.288;2024-03-02T00:01:56;24.35;;;15.75;;
6422;SDS011;3244;42.708;23.288;2024-03-02T00:04:23;34.50;;;18.13;;
6422;SDS011;3244;42.708;23.288;2024-03-02T00:06:51;27.48;;;18.15;;
6422;SDS011;3244;42.708;23.288;2024-03-02T00:09:19;19.90;;;13.25;;
6422;SDS011;3244;42.708;23.288;2024-03-02T00:11:45;31.45;;;17.15;;
6422;SDS011;3244;42.708;23.288;2024-03-02T00:14:12;25.40;;;13.95;;
6422;SDS011;3244;42.708;23.288;2024-03-02T00:16:38;27.30;;;16.92;;
6422;SDS011;3244;42.708;23.288;2024-03-02T00:19:05;24.08;;;15.07;;
6422;SDS011;3244;42.708;23.288;2024-03-02T00:21:32;12.77;;;8.98;;
6422;SDS011;3244;42.708;23.288;2024-03-02T00:23:59;13.02;;;8.88;;
6422;SDS011;3244;42.708;23.288;2024-03-02T00:26:28;16.33;;;11.00;;
6422;SDS011;3244;42.708;23.288;2024-03-02T00:28:55;21.23;;;12.90;;
6422;SDS011;3244;42.708;23.288;2024-03-02T00:31:22;19.85;;;12.43;;
6422;SDS011;3244;42.708;23.288;2024-03-02T00:33:50;18.42;;;12.07;;
6422;SDS011;3244;42.708;23.288;2024-03-02T00:36:17;18.98;;;13.02;;
6422;SDS011;3244;42.708;23.288;2024-03-02T00:38:47;13.15;;;10.65;;
6422;SDS011;3244;42.708;23.288;2024-03-02T00:41:15;15.10;;;10.65;;
6422;SDS011;3244;42.708;23.288;2024-03-02T00:43:43;10.55;;;7.20;;
6422;SDS011;3244;42.708;23.288;2024-03-02T00:46:15;8.07;;;6.93;;
6422;SDS011;3244;42.708;23.288;2024-03-02T00:48:45;20.38;;;13.43;;
6422;SDS011;3244;42.708;23.288;2024-03-02T00:51:14;18.73;;;11.98;;
6422;SDS011;3244;42.708;23.288;2024-03-02T00:53:40;16.30;;;10.02;;
6422;SDS011;3244;42.708;23.288;2024-03-02T00:56:07;18.80;;;11.45;;
6422;SDS011;3244;42.708;23.288;2024-03-02T00:58:35;25.48;;;13.13;;
6422;SDS011;3244;42.708;23.288;2024-03-02T01:01:03;24.60;;;15.55;;
6422;SDS011;3244;42.708;23.288;2024-03-02T01:03:29;21.48;;;14.73;;
6422;SDS011;3244;42.708;23.288;2024-03-02T01:05:56;22.35;;;14.65;;
6422;SDS011;3244;42.708;23.288;2024-03-02T01:08:23;30.08;;;15.75;;
6422;SDS011;3244;42.708;23.288;2024-03-02T01:10:49;35.38;;;15.13;;
6422;SDS011;3244;42.708;23.288;2024-03-02T01:13:16;25.40;;;15.85;;
6422;SDS011;3244;42.708;23.288;2024-03-02T01:15:42;27.80;;;16.30;;
6422;SDS011;3244;42.708;23.288;2024-03-02T01:18:10;25.95;;;16.65;;
6422;SDS011;3244;42.708;23.288;2024-03-02T01:20:36;24.80;;;14.93;;
6422;SDS011;3244;42.708;23.288;2024-03-02T01:23:03;25.80;;;14.48;;
6422;SDS011;3244;42.708;23.288;2024-03-02T01:25:29;20.13;;;13.70;;
6422;SDS011;3244;42.708;23.288;2024-03-02T01:27:56;26.65;;;14.77;;
6422;SDS011;3244;42.708;23.288;2024-03-02T01:30:22;22.08;;;13.07;;
6422;SDS011;3244;42.708;23.288;2024-03-02T01:32:49;26.98;;;15.50;;
6422;SDS011;3244;42.708;23.288;2024-03-02T01:35:17;27.42;;;14.30;;
6422;SDS011;3244;42.708;23.288;2024-03-02T01:37:43;28.08;;;15.07;;
6422;SDS011;3244;42.708;23.288;2024-03-02T01:40:10;28.50;;;16.33;;
6422;SDS011;3244;42.708;23.288;2024-03-02T01:42:37;26.50;;;16.08;;
6422;SDS011;3244;42.708;23.288;2024-03-02T01:45:04;27.13;;;16.20;;
6422;SDS011;3244;42.708;23.288;2024-03-02T01:47:31;30.10;;;15.60;;
6422;SDS011;3244;42.708;23.288;2024-03-02T01:49:57;23.48;;;16.15;;
6422;SDS011;3244;42.708;23.288;2024-03-02T01:52:25;25.55;;;15.10;;
6422;SDS011;3244;42.708;23.288;2024-03-02T01:54:51;31.33;;;17.00;;
6422;SDS011;3244;42.708;23.288;2024-03-02T01:57:18;30.02;;;18.33;;
6422;SDS011;3244;42.708;23.288;2024-03-02T01:59:45;32.97;;;18.38;;
6422;SDS011;3244;42.708;23.288;2024-03-02T02:02:12;27.02;;;17.67;;
6422;SDS011;3244;42.708;23.288;2024-03-02T02:04:39;29.98;;;16.42;;
6422;SDS011;3244;42.708;23.288;2024-03-02T02:07:05;33.38;;;18.63;;
6422;SDS011;3244;42.708;23.288;2024-03-02T02:09:33;27.65;;;17.10;;
6422;SDS011;3244;42.708;23.288;2024-03-02T02:11:59;33.08;;;19.42;;
6422;SDS011;3244;42.708;23.288;2024-03-02T02:14:26;29.17;;;18.52;;
6422;SDS011;3244;42.708;23.288;2024-03-02T02:16:52;27.60;;;17.30;;
6422;SDS011;3244;42.708;23.288;2024-03-02T02:19:19;32.00;;;18.38;;
6422;SDS011;3244;42.708;23.288;2024-03-02T02:21:46;34.67;;;18.20;;
6422;SDS011;3244;42.708;23.288;2024-03-02T02:24:13;40.28;;;19.35;;
6422;SDS011;3244;42.708;23.288;2024-03-02T02:26:39;29.45;;;19.58;;
6422;SDS011;3244;42.708;23.288;2024-03-02T02:29:06;29.35;;;17.60;;
6422;SDS011;3244;42.708;23.288;2024-03-02T02:31:36;34.33;;;17.98;;
6422;SDS011;3244;42.708;23.288;2024-03-02T02:34:02;36.33;;;18.23;;
6422;SDS011;3244;42.708;23.288;2024-03-02T02:36:29;31.15;;;17.20;;
6422;SDS011;3244;42.708;23.288;2024-03-02T02:38:57;28.75;;;16.27;;
6422;SDS011;3244;42.708;23.288;2024-03-02T02:41:23;28.17;;;17.38;;
6422;SDS011;3244;42.708;23.288;2024-03-02T02:43:50;30.98;;;18.55;;
6422;SDS011;3244;42.708;23.288;2024-03-02T02:46:16;33.83;;;19.27;;
6422;SDS011;3244;42.708;23.288;2024-03-02T02:48:43;37.15;;;18.40;;
6422;SDS011;3244;42.708;23.288;2024-03-02T02:51:09;39.78;;;19.92;;
6422;SDS011;3244;42.708;23.288;2024-03-02T02:53:36;32.72;;;18.92;;
6422;SDS011;3244;42.708;23.288;2024-03-02T02:56:06;31.17;;;18.10;;
6422;SDS011;3244;42.708;23.288;2024-03-02T02:58:33;31.65;;;20.30;;
6422;SDS011;3244;42.708;23.288;2024-03-02T03:00:59;34.90;;;19.02;;
6422;SDS011;3244;42.708;23.288;2024-03-02T03:03:26;30.15;;;18.90;;
6422;SDS011;3244;42.708;23.288;2024-03-02T03:05:52;32.70;;;17.40;;
6422;SDS011;3244;42.708;23.288;2024-03-02T03:08:19;30.67;;;19.98;;
6422;SDS011;3244;42.708;23.288;2024-03-02T03:10:45;34.75;;;19.15;;
6422;SDS011;3244;42.708;23.288;2024-03-02T03:13:13;37.83;;;20.30;;
6422;SDS011;3244;42.708;23.288;2024-03-02T03:15:39;39.35;;;20.45;;
6422;SDS011;3244;42.708;23.288;2024-03-02T03:18:06;31.95;;;20.10;;
6422;SDS011;3244;42.708;23.288;2024-03-02T03:20:35;30.27;;;19.73;;
6422;SDS011;3244;42.708;23.288;2024-03-02T03:23:02;40.13;;;20.35;;
6422;SDS011;3244;42.708;23.288;2024-03-02T03:25:29;31.05;;;18.70;;
6422;SDS011;3244;42.708;23.288;2024-03-02T03:27:55;35.97;;;20.58;;
6422;SDS011;3244;42.708;23.288;2024-03-02T03:30:23;36.15;;;21.15;;
6422;SDS011;3244;42.708;23.288;2024-03-02T03:32:50;33.25;;;19.88;;
6422;SDS011;3244;42.708;23.288;2024-03-02T03:35:16;33.20;;;18.92;;
6422;SDS011;3244;42.708;23.288;2024-03-02T03:37:46;34.72;;;18.08;;
6422;SDS011;3244;42.708;23.288;2024-03-02T03:40:12;36.28;;;21.00;;
6422;SDS011;3244;42.708;23.288;2024-03-02T03:42:39;31.13;;;20.40;;
6422;SDS011;3244;42.708;23.288;2024-03-02T03:45:06;31.63;;;19.27;;
6422;SDS011;3244;42.708;23.288;2024-03-02T03:47:34;36.28;;;21.17;;
6422;SDS011;3244;42.708;23.288;2024-03-02T03:50:01;33.53;;;19.92;;
6422;SDS011;3244;42.708;23.288;2024-03-02T03:52:32;31.08;;;19.85;;
6422;SDS011;3244;42.708;23.288;2024-03-02T03:54:58;37.63;;;22.05;;
6422;SDS011;3244;42.708;23.288;2024-03-02T03:57:25;32.72;;;19.10;;
6422;SDS011;3244;42.708;23.288;2024-03-02T03:59:51;38.30;;;22.52;;
6422;SDS011;3244;42.708;23.288;2024-03-02T04:02:18;38.92;;;21.63;;
6422;SDS011;3244;42.708;23.288;2024-03-02T04:04:45;33.40;;;19.92;;
6422;SDS011;3244;42.708;23.288;2024-03-02T04:07:12;36.53;;;21.40;;
6422;SDS011;3244;42.708;23.288;2024-03-02T04:09:38;39.88;;;22.02;;
6422;SDS011;3244;42.708;23.288;2024-03-02T04:12:05;34.42;;;20.58;;
6422;SDS011;3244;42.708;23.288;2024-03-02T04:14:31;41.10;;;22.27;;
6422;SDS011;3244;42.708;23.288;2024-03-02T04:16:58;39.40;;;21.58;;
6422;SDS011;3244;42.708;23.288;2024-03-02T04:19:24;34.05;;;22.23;;
6422;SDS011;3244;42.708;23.288;2024-03-02T04:21:52;42.30;;;23.58;;
6422;SDS011;3244;42.708;23.288;2024-03-02T04:24:18;40.55;;;21.65;;
6422;SDS011;3244;42.708;23.288;2024-03-02T04:26:45;34.63;;;21.23;;
6422;SDS011;3244;42.708;23.288;2024-03-02T04:29:11;39.40;;;21.75;;
6422;SDS011;3244;42.708;23.288;2024-03-02T04:31:37;38.22;;;21.20;;
6422;SDS011;3244;42.708;23.288;2024-03-02T04:34:04;36.33;;;21.85;;
6422;SDS011;3244;42.708;23.288;2024-03-02T04:36:30;38.28;;;21.58;;
6422;SDS011;3244;42.708;23.288;2024-03-02T04:38:58;37.70;;;22.20;;
6422;SDS011;3244;42.708;23.288;2024-03-02T04:41:24;33.50;;;19.80;;
6422;SDS011;3244;42.708;23.288;2024-03-02T04:43:51;40.92;;;21.63;;
6422;SDS011;3244;42.708;23.288;2024-03-02T04:46:17;35.70;;;21.33;;
6422;SDS011;3244;42.708;23.288;2024-03-02T04:48:44;34.38;;;21.67;;
6422;SDS011;3244;42.708;23.288;2024-03-02T04:51:10;43.20;;;20.23;;
6422;SDS011;3244;42.708;23.288;2024-03-02T04:53:38;43.85;;;23.58;;
6422;SDS011;3244;42.708;23.288;2024-03-02T04:56:06;38.47;;;21.58;;
6422;SDS011;3244;42.708;23.288;2024-03-02T04:58:50;48.28;;;24.65;;
6422;SDS011;3244;42.708;23.288;2024-03-02T05:01:16;44.72;;;24.88;;
6422;SDS011;3244;42.708;23.288;2024-03-02T05:03:43;45.42;;;23.85;;
6422;SDS011;3244;42.708;23.288;2024-03-02T05:06:10;39.78;;;22.95;;
6422;SDS011;3244;42.708;23.288;2024-03-02T05:08:36;44.30;;;23.48;;
6422;SDS011;3244;42.708;23.288;2024-03-02T05:11:03;47.30;;;25.27;;
6422;SDS011;3244;42.708;23.288;2024-03-02T05:13:44;46.65;;;24.75;;
6422;SDS011;3244;42.708;23.288;2024-03-02T05:16:11;39.85;;;23.42;;
6422;SDS011;3244;42.708;23.288;2024-03-02T05:18:38;38.65;;;23.13;;
6422;SDS011;3244;42.708;23.288;2024-03-02T05:21:04;45.95;;;24.90;;
6422;SDS011;3244;42.708;23.288;2024-03-02T05:23:31;41.33;;;24.38;;
6422;SDS011;3244;42.708;23.288;2024-03-02T05:25:57;47.50;;;25.30;;
6422;SDS011;3244;42.708;23.288;2024-03-02T05:28:24;46.03;;;23.48;;
6422;SDS011;3244;42.708;23.288;2024-03-02T05:30:51;43.92;;;24.38;;
6422;SDS011;3244;42.708;23.288;2024-03-02T05:33:18;50.80;;;26.15;;
6422;SDS011;3244;42.708;23.288;2024-03-02T05:35:47;43.88;;;23.85;;
6422;SDS011;3244;42.708;23.288;2024-03-02T05:38:15;61.75;;;34.85;;
6422;SDS011;3244;42.708;23.288;2024-03-02T05:40:41;61.30;;;32.63;;
6422;SDS011;3244;42.708;23.288;2024-03-02T05:43:07;58.10;;;30.30;;
6422;SDS011;3244;42.708;23.288;2024-03-02T05:45:34;49.70;;;28.20;;
6422;SDS011;3244;42.708;23.288;2024-03-02T05:48:02;53.80;;;27.77;;
6422;SDS011;3244;42.708;23.288;2024-03-02T05:50:28;59.38;;;31.70;;
6422;SDS011;3244;42.708;23.288;2024-03-02T05:52:54;43.42;;;24.63;;
6422;SDS011;3244;42.708;23.288;2024-03-02T05:55:22;44.70;;;25.30;;
6422;SDS011;3244;42.708;23.288;2024-03-02T05:57:48;40.25;;;23.77;;
6422;SDS011;3244;42.708;23.288;2024-03-02T06:00:27;45.30;;;24.80;;
6422;SDS011;3244;42.708;23.288;2024-03-02T06:02:55;43.60;;;24.38;;
6422;SDS011;3244;42.708;23.288;2024-03-02T06:05:24;43.67;;;26.55;;
6422;SDS011;3244;42.708;23.288;2024-03-02T06:07:50;43.80;;;23.98;;
6422;SDS011;3244;42.708;23.288;2024-03-02T06:10:17;47.55;;;25.95;;
6422;SDS011;3244;42.708;23.288;2024-03-02T06:12:44;60.25;;;30.05;;
6422;SDS011;3244;42.708;23.288;2024-03-02T06:15:10;43.10;;;25.98;;
6422;SDS011;3244;42.708;23.288;2024-03-02T06:17:37;45.15;;;25.00;;
6422;SDS011;3244;42.708;23.288;2024-03-02T06:20:04;39.53;;;23.08;;
6422;SDS011;3244;42.708;23.288;2024-03-02T06:22:34;38.13;;;22.13;;
6422;SDS011;3244;42.708;23.288;2024-03-02T06:25:01;40.55;;;21.75;;
6422;SDS011;3244;42.708;23.288;2024-03-02T06:27:27;41.47;;;21.38;;
6422;SDS011;3244;42.708;23.288;2024-03-02T06:29:54;43.08;;;21.33;;
6422;SDS011;3244;42.708;23.288;2024-03-02T06:32:20;36.10;;;19.92;;
6422;SDS011;3244;42.708;23.288;2024-03-02T06:34:46;40.38;;;21.15;;
6422;SDS011;3244;42.708;23.288;2024-03-02T06:37:12;43.58;;;21.17;;
6422;SDS011;3244;42.708;23.288;2024-03-02T06:39:43;46.67;;;20.80;;
6422;SDS011;3244;42.708;23.288;2024-03-02T06:42:09;42.92;;;21.40;;
6422;SDS011;3244;42.708;23.288;2024-03-02T06:44:35;39.72;;;18.75;;
6422;SDS011;3244;42.708;23.288;2024-03-02T06:47:02;34.85;;;19.95;;
6422;SDS011;3244;42.708;23.288;2024-03-02T06:49:29;43.45;;;20.90;;
6422;SDS011;3244;42.708;23.288;2024-03-02T06:51:56;38.55;;;19.38;;
6422;SDS011;3244;42.708;23.288;2024-03-02T06:54:22;40.22;;;20.85;;
6422;SDS011;3244;42.708;23.288;2024-03-02T06:56:50;38.50;;;18.73;;
6422;SDS011;3244;42.708;23.288;2024-03-02T06:59:17;39.10;;;17.83;;
6422;SDS011;3244;42.708;23.288;2024-03-02T07:01:43;30.95;;;19.63;;
6422;SDS011;3244;42.708;23.288;2024-03-02T07:04:10;38.63;;;19.48;;
6422;SDS011;3244;42.708;23.288;2024-03-02T07:06:36;37.78;;;20.17;;
6422;SDS011;3244;42.708;23.288;2024-03-02T07:09:02;35.63;;;18.77;;
6422;SDS011;3244;42.708;23.288;2024-03-02T07:11:29;39.17;;;20.70;;
6422;SDS011;3244;42.708;23.288;2024-03-02T07:13:57;34.70;;;20.42;;
6422;SDS011;3244;42.708;23.288;2024-03-02T07:16:23;40.03;;;20.55;;
6422;SDS011;3244;42.708;23.288;2024-03-02T07:18:57;38.42;;;19.52;;
6422;SDS011;3244;42.708;23.288;2024-03-02T07:21:26;41.70;;;21.23;;
6422;SDS011;3244;42.708;23.288;2024-03-02T07:23:53;46.38;;;20.77;;
6422;SDS011;3244;42.708;23.288;2024-03-02T07:26:20;40.00;;;20.42;;
6422;SDS011;3244;42.708;23.288;2024-03-02T07:28:48;41.85;;;21.63;;
6422;SDS011;3244;42.708;23.288;2024-03-02T07:31:16;36.92;;;19.88;;
6422;SDS011;3244;42.708;23.288;2024-03-02T07:33:43;35.30;;;20.00;;
6422;SDS011;3244;42.708;23.288;2024-03-02T07:36:10;38.95;;;21.50;;
6422;SDS011;3244;42.708;23.288;2024-03-02T07:38:36;40.25;;;22.25;;
6422;SDS011;3244;42.708;23.288;2024-03-02T07:41:03;44.90;;;22.63;;
6422;SDS011;3244;42.708;23.288;2024-03-02T07:43:30;48.88;;;22.35;;
6422;SDS011;3244;42.708;23.288;2024-03-02T07:45:58;46.85;;;22.02;;
6422;SDS011;3244;42.708;23.288;2024-03-02T07:48:26;49.05;;;21.85;;
6422;SDS011;3244;42.708;23.288;2024-03-02T07:50:53;44.75;;;20.92;;
6422;SDS011;3244;42.708;23.288;2024-03-02T07:53:19;44.40;;;19.92;;
6422;SDS011;3244;42.708;23.288;2024-03-02T07:55:46;47.90;;;22.05;;
6422;SDS011;3244;42.708;23.288;2024-03-02T07:58:13;43.17;;;21.15;;
6422;SDS011;3244;42.708;23.288;2024-03-02T08:00:39;37.33;;;20.50;;
6422;SDS011;3244;42.708;23.288;2024-03-02T08:03:09;44.03;;;20.73;;
6422;SDS011;3244;42.708;23.288;2024-03-02T08:05:37;40.55;;;19.23;;
6422;SDS011;3244;42.708;23.288;2024-03-02T08:08:05;38.47;;;19.70;;
6422;SDS011;3244;42.708;23.288;2024-03-02T08:10:31;43.80;;;21.17;;
6422;SDS011;3244;42.708;23.288;2024-03-02T08:12:58;46.47;;;20.13;;
6422;SDS011;3244;42.708;23.288;2024-03-02T08:15:25;38.67;;;19.00;;
6422;SDS011;3244;42.708;23.288;2024-03-02T08:17:52;43.10;;;21.10;;
6422;SDS011;3244;42.708;23.288;2024-03-02T08:20:19;46.40;;;21.42;;
6422;SDS011;3244;42.708;23.288;2024-03-02T08:22:47;41.40;;;21.17;;
6422;SDS011;3244;42.708;23.288;2024-03-02T08:25:13;43.25;;;21.88;;
6422;SDS011;3244;42.708;23.288;2024-03-02T08:27:41;37.08;;;18.67;;
6422;SDS011;3244;42.708;23.288;2024-03-02T08:30:08;35.25;;;19.38;;
6422;SDS011;3244;42.708;23.288;2024-03-02T08:32:35;46.70;;;19.38;;
6422;SDS011;3244;42.708;23.288;2024-03-02T08:35:02;37.22;;;18.45;;
6422;SDS011;3244;42.708;23.288;2024-03-02T08:37:30;34.40;;;18.85;;
6422;SDS011;3244;42.708;23.288;2024-03-02T08:39:58;39.15;;;20.60;;
6422;SDS011;3244;42.708;23.288;2024-03-02T08:42:25;41.22;;;18.63;;
6422;SDS011;3244;42.708;23.288;2024-03-02T08:44:51;41.60;;;20.15;;
6422;SDS011;3244;42.708;23.288;2024-03-02T08:47:18;38.15;;;21.02;;
6422;SDS011;3244;42.708;23.288;2024-03-02T08:49:44;34.78;;;18.17;;
6422;SDS011;3244;42.708;23.288;2024-03-02T08:52:11;38.17;;;19.60;;
6422;SDS011;3244;42.708;23.288;2024-03-02T08:54:38;44.28;;;20.92;;
6422;SDS011;3244;42.708;23.288;2024-03-02T08:57:06;35.67;;;18.50;;
6422;SDS011;3244;42.708;23.288;2024-03-02T08:59:33;38.33;;;19.33;;
6422;SDS011;3244;42.708;23.288;2024-03-02T09:01:59;35.50;;;20.23;;
6422;SDS011;3244;42.708;23.288;2024-03-02T09:04:26;34.78;;;19.08;;
6422;SDS011;3244;42.708;23.288;2024-03-02T09:06:53;36.90;;;19.35;;
6422;SDS011;3244;42.708;23.288;2024-03-02T09:09:20;37.08;;;19.25;;
6422;SDS011;3244;42.708;23.288;2024-03-02T09:11:47;36.20;;;19.33;;
6422;SDS011;3244;42.708;23.288;2024-03-02T09:14:15;35.67;;;19.88;;
6422;SDS011;3244;42.708;23.288;2024-03-02T09:16:42;39.45;;;20.08;;
6422;SDS011;3244;42.708;23.288;2024-03-02T09:19:09;31.42;;;18.38;;
6422;SDS011;3244;42.708;23.288;2024-03-02T09:21:35;33.90;;;19.25;;
6422;SDS011;3244;42.708;23.288;2024-03-02T09:24:02;31.42;;;19.00;;
6422;SDS011;3244;42.708;23.288;2024-03-02T09:26:28;35.97;;;20.88;;
6422;SDS011;3244;42.708;23.288;2024-03-02T09:28:55;39.35;;;20.00;;
6422;SDS011;3244;42.708;23.288;2024-03-02T09:31:23;38.75;;;20.88;;
6422;SDS011;3244;42.708;23.288;2024-03-02T09:33:50;32.72;;;19.63;;
6422;SDS011;3244;42.708;23.288;2024-03-02T09:36:16;31.92;;;19.27;;
6422;SDS011;3244;42.708;23.288;2024-03-02T09:38:43;30.30;;;18.95;;
6422;SDS011;3244;42.708;23.288;2024-03-02T09:41:10;31.15;;;19.58;;
6422;SDS011;3244;42.708;23.288;2024-03-02T09:43:37;38.85;;;19.67;;
6422;SDS011;3244;42.708;23.288;2024-03-02T09:46:03;33.15;;;19.80;;
6422;SDS011;3244;42.708;23.288;2024-03-02T09:48:32;32.53;;;19.23;;
6422;SDS011;3244;42.708;23.288;2024-03-02T09:50:59;40.40;;;20.27;;
6422;SDS011;3244;42.708;23.288;2024-03-02T09:53:26;37.95;;;20.30;;
6422;SDS011;3244;42.708;23.288;2024-03-02T09:55:56;34.67;;;20.35;;
6422;SDS011;3244;42.708;23.288;2024-03-02T09:58:22;36.17;;;20.00;;
6422;SDS011;3244;42.708;23.288;2024-03-02T10:00:49;40.70;;;20.10;;
6422;SDS011;3244;42.708;23.288;2024-03-02T10:03:14;32.15;;;18.90;;
6422;SDS011;3244;42.708;23.288;2024-03-02T10:05:42;35.63;;;20.40;;
6422;SDS011;3244;42.708;23.288;2024-03-02T10:08:09;54.95;;;27.67;;
6422;SDS011;3244;42.708;23.288;2024-03-02T10:10:36;37.67;;;21.08;;
6422;SDS011;3244;42.708;23.288;2024-03-02T10:13:05;35.47;;;20.30;;
6422;SDS011;3244;42.708;23.288;2024-03-02T10:15:31;38.42;;;20.58;;
6422;SDS011;3244;42.708;23.288;2024-03-02T10:17:58;37.55;;;21.58;;
6422;SDS011;3244;42.708;23.288;2024-03-02T10:20:25;38.30;;;21.33;;
6422;SDS011;3244;42.708;23.288;2024-03-02T10:22:55;39.15;;;21.20;;
6422;SDS011;3244;42.708;23.288;2024-03-02T10:25:28;47.25;;;26.73;;
6422;SDS011;3244;42.708;23.288;2024-03-02T10:27:56;39.45;;;24.05;;
6422;SDS011;3244;42.708;23.288;2024-03-02T10:30:23;35.92;;;21.77;;
6422;SDS011;3244;42.708;23.288;2024-03-02T10:32:49;42.47;;;20.63;;
6422;SDS011;3244;42.708;23.288;2024-03-02T10:35:16;35.65;;;20.25;;
6422;SDS011;3244;42.708;23.288;2024-03-02T10:37:42;36.53;;;19.83;;
6422;SDS011;3244;42.708;23.288;2024-03-02T10:40:11;40.88;;;22.38;;
6422;SDS011;3244;42.708;23.288;2024-03-02T10:42:38;36.85;;;21.17;;
6422;SDS011;3244;42.708;23.288;2024-03-02T10:45:05;36.13;;;20.77;;
6422;SDS011;3244;42.708;23.288;2024-03-02T10:47:32;33.42;;;19.10;;
6422;SDS011;3244;42.708;23.288;2024-03-02T10:49:59;31.52;;;18.60;;
6422;SDS011;3244;42.708;23.288;2024-03-02T10:52:27;33.85;;;19.33;;
6422;SDS011;3244;42.708;23.288;2024-03-02T10:54:54;39.20;;;21.52;;
6422;SDS011;3244;42.708;23.288;2024-03-02T10:57:22;31.27;;;20.70;;
6422;SDS011;3244;42.708;23.288;2024-03-02T10:59:52;31.13;;;17.85;;
6422;SDS011;3244;42.708;23.288;2024-03-02T11:02:18;35.95;;;20.00;;
6422;SDS011;3244;42.708;23.288;2024-03-02T11:04:46;31.38;;;18.10;;
6422;SDS011;3244;42.708;23.288;2024-03-02T11:07:13;33.00;;;19.10;;
6422;SDS011;3244;42.708;23.288;2024-03-02T11:09:40;30.95;;;17.92;;
6422;SDS011;3244;42.708;23.288;2024-03-02T11:12:09;35.05;;;20.00;;
6422;SDS011;3244;42.708;23.288;2024-03-02T11:14:40;36.08;;;20.70;;
6422;SDS011;3244;42.708;23.288;2024-03-02T11:17:08;34.35;;;20.15;;
6422;SDS011;3244;42.708;23.288;2024-03-02T11:19:34;39.97;;;21.98;;
6422;SDS011;3244;42.708;23.288;2024-03-02T11:22:02;33.10;;;19.67;;
6422;SDS011;3244;42.708;23.288;2024-03-02T11:24:29;34.05;;;20.13;;
6422;SDS011;3244;42.708;23.288;2024-03-02T11:26:58;34.25;;;19.63;;
6422;SDS011;3244;42.708;23.288;2024-03-02T11:32:12;34.70;;;19.13;;
6422;SDS011;3244;42.708;23.288;2024-03-02T11:34:40;30.98;;;17.17;;
6422;SDS011;3244;42.708;23.288;2024-03-02T11:37:10;27.27;;;17.52;;
6422;SDS011;3244;42.708;23.288;2024-03-02T11:39:37;27.13;;;18.23;;
6422;SDS011;3244;42.708;23.288;2024-03-02T11:42:05;32.63;;;18.98;;
6422;SDS011;3244;42.708;23.288;2024-03-02T11:44:32;31.17;;;18.00;;
6422;SDS011;3244;42.708;23.288;2024-03-02T11:46:58;28.45;;;16.65;;
6422;SDS011;3244;42.708;23.288;2024-03-02T11:49:37;28.05;;;15.27;;
6422;SDS011;3244;42.708;23.288;2024-03-02T11:52:04;27.52;;;15.55;;
6422;SDS011;3244;42.708;23.288;2024-03-02T11:54:31;22.13;;;15.57;;
6422;SDS011;3244;42.708;23.288;2024-03-02T11:56:59;25.27;;;16.98;;
6422;SDS011;3244;42.708;23.288;2024-03-02T11:59:26;26.65;;;16.50;;
6422;SDS011;3244;42.708;23.288;2024-03-02T12:01:52;28.05;;;18.15;;
6422;SDS011;3244;42.708;23.288;2024-03-02T12:04:19;26.00;;;16.98;;
6422;SDS011;3244;42.708;23.288;2024-03-02T12:06:48;29.80;;;18.00;;
6422;SDS011;3244;42.708;23.288;2024-03-02T12:09:20;24.15;;;15.93;;
6422;SDS011;3244;42.708;23.288;2024-03-02T12:11:46;24.63;;;16.63;;
6422;SDS011;3244;42.708;23.288;2024-03-02T12:14:13;31.08;;;16.80;;
6422;SDS011;3244;42.708;23.288;2024-03-02T12:16:43;26.52;;;16.83;;
6422;SDS011;3244;42.708;23.288;2024-03-02T12:19:09;28.02;;;17.95;;
6422;SDS011;3244;42.708;23.288;2024-03-02T12:21:36;25.02;;;17.33;;
6422;SDS011;3244;42.708;23.288;2024-03-02T12:24:04;23.58;;;15.70;;
6422;SDS011;3244;42.708;23.288;2024-03-02T12:26:30;28.50;;;17.50;;
6422;SDS011;3244;42.708;23.288;2024-03-02T12:28:57;26.85;;;17.02;;
6422;SDS011;3244;42.708;23.288;2024-03-02T12:31:24;29.50;;;16.50;;
6422;SDS011;3244;42.708;23.288;2024-03-02T12:33:50;29.15;;;16.73;;
6422;SDS011;3244;42.708;23.288;2024-03-02T12:36:17;26.58;;;15.85;;
6422;SDS011;3244;42.708;23.288;2024-03-02T12:38:44;25.52;;;16.73;;
6422;SDS011;3244;42.708;23.288;2024-03-02T12:41:15;23.92;;;15.55;;
6422;SDS011;3244;42.708;23.288;2024-03-02T12:43:41;26.35;;;17.13;;
6422;SDS011;3244;42.708;23.288;2024-03-02T12:46:08;25.23;;;17.15;;
6422;SDS011;3244;42.708;23.288;2024-03-02T12:48:34;24.30;;;16.40;;
6422;SDS011;3244;42.708;23.288;2024-03-02T12:51:01;28.00;;;16.45;;
6422;SDS011;3244;42.708;23.288;2024-03-02T12:53:28;26.35;;;16.25;;
6422;SDS011;3244;42.708;23.288;2024-03-02T12:55:54;22.75;;;15.82;;
6422;SDS011;3244;42.708;23.288;2024-03-02T12:58:23;27.67;;;17.00;;
6422;SDS011;3244;42.708;23.288;2024-03-02T13:00:49;29.30;;;15.75;;
6422;SDS011;3244;42.708;23.288;2024-03-02T13:03:17;30.50;;;17.65;;
6422;SDS011;3244;42.708;23.288;2024-03-02T13:05:48;30.83;;;19.02;;
6422;SDS011;3244;42.708;23.288;2024-03-02T13:08:14;33.72;;;19.27;;
6422;SDS011;3244;42.708;23.288;2024-03-02T13:10:41;35.47;;;22.70;;
6422;SDS011;3244;42.708;23.288;2024-03-02T13:13:07;38.97;;;23.80;;
6422;SDS011;3244;42.708;23.288;2024-03-02T13:15:35;43.03;;;26.58;;
6422;SDS011;3244;42.708;23.288;2024-03-02T13:18:02;48.22;;;26.60;;
6422;SDS011;3244;42.708;23.288;2024-03-02T13:20:30;43.58;;;29.90;;
6422;SDS011;3244;42.708;23.288;2024-03-02T13:22:56;43.78;;;28.33;;
6422;SDS011;3244;42.708;23.288;2024-03-02T13:25:23;47.60;;;29.90;;
6422;SDS011;3244;42.708;23.288;2024-03-02T13:27:49;46.53;;;28.13;;
6422;SDS011;3244;42.708;23.288;2024-03-02T13:30:16;41.35;;;26.05;;
6422;SDS011;3244;42.708;23.288;2024-03-02T13:32:44;41.17;;;24.63;;
6422;SDS011;3244;42.708;23.288;2024-03-02T13:35:10;35.33;;;21.60;;
6422;SDS011;3244;42.708;23.288;2024-03-02T13:37:37;31.17;;;19.33;;
6422;SDS011;3244;42.708;23.288;2024-03-02T13:40:04;27.38;;;16.88;;
6422;SDS011;3244;42.708;23.288;2024-03-02T13:42:30;28.17;;;16.98;;
6422;SDS011;3244;42.708;23.288;2024-03-02T13:44:57;22.80;;;16.15;;
6422;SDS011;3244;42.708;23.288;2024-03-02T13:47:23;25.85;;;16.90;;
6422;SDS011;3244;42.708;23.288;2024-03-02T13:49:54;25.52;;;16.40;;
6422;SDS011;3244;42.708;23.288;2024-03-02T13:52:20;26.98;;;16.17;;
6422;SDS011;3244;42.708;23.288;2024-03-02T13:54:47;19.92;;;15.07;;
6422;SDS011;3244;42.708;23.288;2024-03-02T13:57:13;20.35;;;15.27;;
6422;SDS011;3244;42.708;23.288;2024-03-02T13:59:40;23.13;;;15.68;;
6422;SDS011;3244;42.708;23.288;2024-03-02T14:02:06;24.05;;;15.88;;
6422;SDS011;3244;42.708;23.288;2024-03-02T14:04:33;24.48;;;15.50;;
6422;SDS011;3244;42.708;23.288;2024-03-02T14:07:02;25.65;;;16.23;;
6422;SDS011;3244;42.708;23.288;2024-03-02T14:09:28;27.30;;;15.88;;
6422;SDS011;3244;42.708;23.288;2024-03-02T14:11:55;24.80;;;15.68;;
6422;SDS011;3244;42.708;23.288;2024-03-02T14:14:21;33.38;;;20.40;;
6422;SDS011;3244;42.708;23.288;2024-03-02T14:16:48;28.92;;;17.58;;
6422;SDS011;3244;42.708;23.288;2024-03-02T14:19:14;26.95;;;16.23;;
6422;SDS011;3244;42.708;23.288;2024-03-02T14:21:41;26.80;;;17.05;;
6422;SDS011;3244;42.708;23.288;2024-03-02T14:24:09;23.42;;;15.85;;
6422;SDS011;3244;42.708;23.288;2024-03-02T14:26:35;28.00;;;17.50;;
6422;SDS011;3244;42.708;23.288;2024-03-02T14:29:02;21.40;;;15.77;;
6422;SDS011;3244;42.708;23.288;2024-03-02T14:31:29;25.13;;;15.55;;
6422;SDS011;3244;42.708;23.288;2024-03-02T14:33:56;27.58;;;17.23;;
6422;SDS011;3244;42.708;23.288;2024-03-02T14:36:24;27.77;;;16.13;;
6422;SDS011;3244;42.708;23.288;2024-03-02T14:38:54;29.30;;;17.58;;